createdAt,value
2018-06-11T00:01:27.323Z,25.20
2018-06-11T00:03:55.400Z,25.20
2018-06-11T00:06:23.468Z,25.10
2018-06-11T00:08:51.539Z,25.10
2018-06-11T00:11:19.613Z,25.00
2018-06-11T00:13:47.679Z,25.00
2018-06-11T00:16:15.759Z,25.00
2018-06-11T00:18:43.832Z,25.00
2018-06-11T00:21:11.899Z,24.90
2018-06-11T00:23:39.995Z,24.90
2018-06-11T00:26:08.075Z,24.90
2018-06-11T00:28:36.156Z,24.80
2018-06-11T00:31:04.235Z,24.80
2018-06-11T00:33:32.359Z,24.80
2018-06-11T00:36:00.470Z,24.70
2018-06-11T00:38:28.544Z,24.70
2018-06-11T00:40:56.632Z,24.60
2018-06-11T00:43:24.713Z,24.60
2018-06-11T00:45:52.798Z,24.60
2018-06-11T00:51:21.392Z,24.50
2018-06-11T00:53:49.511Z,24.50
2018-06-11T00:56:17.589Z,24.40
2018-06-11T00:58:45.686Z,24.40
2018-06-11T01:01:13.803Z,24.30
2018-06-11T01:03:41.895Z,24.30
2018-06-11T01:06:09.992Z,24.30
2018-06-11T01:08:38.121Z,24.30
2018-06-11T01:11:06.218Z,24.30
2018-06-11T01:13:34.364Z,24.30
2018-06-11T01:16:02.460Z,24.30
2018-06-11T01:18:30.567Z,24.30
2018-06-11T01:20:58.659Z,24.30
2018-06-11T01:23:26.767Z,24.30
2018-06-11T01:25:54.860Z,24.30
2018-06-11T01:30:50.820Z,24.30
2018-06-11T01:33:25.216Z,24.20
2018-06-11T01:35:53.379Z,24.20
2018-06-11T01:38:21.456Z,24.20
2018-06-11T01:40:49.543Z,24.20
2018-06-11T01:43:17.635Z,24.20
2018-06-11T01:45:45.787Z,24.20
2018-06-11T01:48:13.887Z,24.10
2018-06-11T01:50:42.011Z,24.20
2018-06-11T01:53:10.107Z,24.20
2018-06-11T01:55:38.215Z,24.10
2018-06-11T01:58:06.303Z,24.10
2018-06-11T02:00:34.424Z,24.10
2018-06-11T02:03:02.516Z,24.10
2018-06-11T02:05:30.619Z,24.20
2018-06-11T02:10:26.612Z,24.10
2018-06-11T02:12:54.707Z,24.00
2018-06-11T02:15:22.812Z,24.00
2018-06-11T02:17:50.904Z,24.00
2018-06-11T02:20:19.016Z,24.00
2018-06-11T02:22:47.107Z,24.00
2018-06-11T02:25:15.228Z,24.00
2018-06-11T02:27:43.335Z,24.00
2018-06-11T02:30:11.436Z,24.00
2018-06-11T02:35:07.424Z,24.00
2018-06-11T02:37:35.528Z,23.90
2018-06-11T02:40:03.623Z,24.00
2018-06-11T02:42:32.047Z,24.00
2018-06-11T02:45:00.148Z,24.00
2018-06-11T02:47:28.255Z,24.00
2018-06-11T02:49:56.376Z,23.90
2018-06-11T02:52:24.511Z,24.00
2018-06-11T02:54:52.597Z,23.90
2018-06-11T02:57:20.691Z,23.90
2018-06-11T02:59:48.788Z,23.90
2018-06-11T03:02:16.872Z,23.90
2018-06-11T03:04:44.978Z,23.90
2018-06-11T03:07:13.075Z,23.90
2018-06-11T03:09:41.190Z,23.80
2018-06-11T03:12:09.277Z,23.90
2018-06-11T03:17:05.289Z,23.90
2018-06-11T03:19:33.395Z,23.80
2018-06-11T03:22:01.487Z,23.90
2018-06-11T03:24:29.590Z,23.80
2018-06-11T03:26:57.695Z,23.90
2018-06-11T03:29:25.812Z,23.90
2018-06-11T03:31:53.907Z,23.90
2018-06-11T03:34:22.019Z,23.90
2018-06-11T03:36:50.128Z,23.80
2018-06-11T03:39:18.231Z,23.80
2018-06-11T03:41:46.347Z,23.70
2018-06-11T03:46:42.362Z,23.80
2018-06-11T03:49:10.464Z,23.80
2018-06-11T03:51:38.571Z,23.80
2018-06-11T03:54:06.652Z,23.80
2018-06-11T03:56:34.747Z,23.80
2018-06-11T03:59:02.921Z,23.80
2018-06-11T04:01:31.041Z,23.80
2018-06-11T04:03:59.128Z,23.70
2018-06-11T04:06:27.232Z,23.80
2018-06-11T04:08:55.327Z,23.80
2018-06-11T04:11:23.420Z,23.80
2018-06-11T04:13:51.519Z,23.70
2018-06-11T04:16:20.175Z,23.70
2018-06-11T04:18:48.271Z,23.70
2018-06-11T04:21:16.363Z,23.70
2018-06-11T04:23:44.484Z,23.70
2018-06-11T04:26:12.591Z,23.70
2018-06-11T04:28:43.479Z,23.80
2018-06-11T04:31:11.598Z,23.80
2018-06-11T04:33:39.704Z,23.80
2018-06-11T04:36:07.840Z,23.80
2018-06-11T04:38:35.936Z,23.80
2018-06-11T04:41:04.027Z,23.80
2018-06-11T04:46:06.807Z,23.90
2018-06-11T04:48:34.909Z,23.80
2018-06-11T04:51:03.008Z,23.90
2018-06-11T04:53:31.093Z,23.90
2018-06-11T04:55:59.193Z,24.00
2018-06-11T04:58:27.283Z,24.00
2018-06-11T05:00:55.382Z,24.00
2018-06-11T05:03:23.475Z,24.10
2018-06-11T05:05:51.572Z,24.10
2018-06-11T05:08:19.656Z,24.10
2018-06-11T05:10:47.827Z,24.00
2018-06-11T05:13:15.906Z,24.20
2018-06-11T05:15:44.010Z,24.10
2018-06-11T05:18:12.095Z,24.20
2018-06-11T05:20:40.220Z,24.20
2018-06-11T05:23:08.323Z,24.20
2018-06-11T05:25:36.448Z,24.30
2018-06-11T05:28:04.539Z,24.30
2018-06-11T05:30:32.637Z,24.30
2018-06-11T05:33:00.724Z,24.30
2018-06-11T05:35:28.836Z,24.30
2018-06-11T05:37:57.001Z,24.40
2018-06-11T05:40:25.089Z,24.50
2018-06-11T05:42:53.159Z,24.50
2018-06-11T05:45:21.264Z,24.60
2018-06-11T05:47:49.386Z,24.60
2018-06-11T05:50:17.488Z,24.70
2018-06-11T05:52:45.568Z,24.70
2018-06-11T05:55:13.675Z,24.70
2018-06-11T05:57:41.787Z,24.70
2018-06-11T06:00:09.904Z,24.60
2018-06-11T06:02:38.000Z,24.70
2018-06-11T06:07:33.990Z,24.80
2018-06-11T06:10:02.103Z,24.90
2018-06-11T06:12:30.230Z,24.90
2018-06-11T06:14:58.363Z,24.90
2018-06-11T06:17:26.464Z,25.00
2018-06-11T06:19:54.556Z,25.00
2018-06-11T06:22:22.697Z,25.10
2018-06-11T06:24:50.795Z,25.20
2018-06-11T06:27:18.904Z,25.20
2018-06-11T06:29:47.033Z,25.10
2018-06-11T06:32:15.153Z,25.10
2018-06-11T06:34:43.301Z,25.10
2018-06-11T06:37:11.376Z,25.20
2018-06-11T06:39:39.510Z,25.40
2018-06-11T06:42:07.599Z,25.40
2018-06-11T06:44:35.705Z,25.40
2018-06-11T06:47:03.807Z,25.50
2018-06-11T06:54:27.687Z,25.60
2018-06-11T06:56:55.782Z,25.60
2018-06-11T06:59:23.883Z,25.70
2018-06-11T07:01:51.992Z,25.70
2018-06-11T07:04:20.081Z,25.80
2018-06-11T07:06:48.171Z,25.90
2018-06-11T07:11:44.175Z,25.90
2018-06-11T07:14:12.307Z,25.80
2018-06-11T07:16:40.404Z,25.80
2018-06-11T07:19:08.488Z,25.80
2018-06-11T07:21:36.600Z,25.90
2018-06-11T07:24:04.743Z,26.00
2018-06-11T07:26:32.848Z,26.00
2018-06-11T07:31:28.833Z,26.10
2018-06-11T07:33:56.958Z,26.20
2018-06-11T07:36:25.075Z,26.20
2018-06-11T07:38:53.168Z,26.20
2018-06-11T07:43:49.170Z,26.30
2018-06-11T07:46:17.276Z,26.40
2018-06-11T07:51:13.252Z,26.40
2018-06-11T07:53:41.341Z,26.30
2018-06-11T07:56:09.444Z,26.30
2018-06-11T07:58:37.561Z,26.30
2018-06-11T08:01:05.664Z,26.30
2018-06-11T08:03:33.749Z,26.30
2018-06-11T08:06:01.848Z,26.40
2018-06-11T08:08:29.943Z,26.40
2018-06-11T08:10:58.055Z,26.40
2018-06-11T08:13:26.232Z,26.40
2018-06-11T08:15:54.284Z,26.50
2018-06-11T08:18:22.435Z,26.50
2018-06-11T08:20:50.548Z,26.60
2018-06-11T08:23:18.665Z,26.60
2018-06-11T08:25:46.763Z,26.70
2018-06-11T08:28:14.851Z,26.80
2018-06-11T08:30:42.979Z,26.80
2018-06-11T08:33:11.076Z,26.80
2018-06-11T08:35:39.175Z,26.80
2018-06-11T08:38:07.297Z,26.90
2018-06-11T08:40:35.383Z,27.00
2018-06-11T08:43:03.546Z,27.10
2018-06-11T08:45:31.624Z,27.20
2018-06-11T08:47:59.711Z,27.30
2018-06-11T08:50:27.792Z,27.30
2018-06-11T08:52:55.902Z,27.40
2018-06-11T08:55:23.983Z,27.50
2018-06-11T08:57:52.093Z,27.70
2018-06-11T09:00:20.179Z,27.70
2018-06-11T09:02:48.268Z,27.60
2018-06-11T09:05:16.372Z,27.60
2018-06-11T09:07:44.478Z,27.70
2018-06-11T09:10:12.570Z,27.80
2018-06-11T09:12:40.703Z,27.70
2018-06-11T09:15:08.760Z,27.60
2018-06-11T09:17:36.881Z,27.60
2018-06-11T09:20:04.961Z,27.70
2018-06-11T09:22:33.066Z,27.90
2018-06-11T09:25:01.168Z,27.90
2018-06-11T09:27:29.247Z,28.10
2018-06-11T09:29:57.343Z,28.10
2018-06-11T09:32:25.457Z,28.00
2018-06-11T09:34:53.547Z,28.00
2018-06-11T09:37:21.667Z,28.00
2018-06-11T09:39:49.779Z,28.00
2018-06-11T09:42:17.883Z,28.10
2018-06-11T09:44:46.015Z,28.10
2018-06-11T09:49:42.023Z,28.20
2018-06-11T09:52:10.111Z,28.30
2018-06-11T09:54:38.243Z,28.20
2018-06-11T09:57:06.395Z,28.40
2018-06-11T09:59:34.484Z,28.60
2018-06-11T10:02:02.594Z,28.60
2018-06-11T10:04:30.715Z,28.60
2018-06-11T10:06:58.820Z,28.60
2018-06-11T10:09:26.931Z,28.70
2018-06-11T10:14:22.899Z,28.90
2018-06-11T10:16:51.021Z,29.10
2018-06-11T10:19:19.186Z,29.20
2018-06-11T10:21:47.229Z,29.50
2018-06-11T10:26:43.224Z,29.90
2018-06-11T10:29:11.358Z,29.90
2018-06-11T10:31:39.448Z,30.00
2018-06-11T10:34:07.583Z,30.20
2018-06-11T10:36:35.692Z,30.20
2018-06-11T10:39:06.062Z,30.10
2018-06-11T10:41:34.134Z,30.50
2018-06-11T10:44:02.211Z,31.20
2018-06-11T10:46:30.320Z,31.90
2018-06-11T10:48:58.396Z,31.80
2018-06-11T10:51:26.492Z,31.50
2018-06-11T10:53:54.587Z,31.50
2018-06-11T10:56:22.668Z,31.60
2018-06-11T10:58:50.767Z,31.60
2018-06-11T11:01:18.867Z,31.70
2018-06-11T11:03:46.967Z,31.90
2018-06-11T11:06:15.045Z,31.80
2018-06-11T11:08:43.147Z,31.80
2018-06-11T11:11:11.250Z,31.80
2018-06-11T11:13:39.366Z,32.10
2018-06-11T11:16:07.459Z,32.40
2018-06-11T11:18:35.549Z,32.80
2018-06-11T11:21:03.644Z,32.80
2018-06-11T11:23:31.785Z,32.90
2018-06-11T11:25:59.939Z,33.10
2018-06-11T11:28:28.067Z,33.30
2018-06-11T11:30:56.198Z,33.80
2018-06-11T11:33:24.317Z,35.40
2018-06-11T11:35:52.404Z,36.50
2018-06-11T11:38:20.554Z,37.80
2018-06-11T11:40:48.658Z,38.80
2018-06-11T11:43:16.767Z,39.90
2018-06-11T11:45:44.861Z,40.60
2018-06-11T11:48:12.968Z,41.40
2018-06-11T11:50:41.111Z,42.50
2018-06-11T11:53:09.242Z,44.10
2018-06-11T11:55:37.336Z,44.20
2018-06-11T11:58:05.500Z,43.50
2018-06-11T12:00:33.607Z,43.80
2018-06-11T12:03:01.820Z,45.40
2018-06-11T12:05:29.961Z,45.60
2018-06-11T12:07:58.083Z,43.20
2018-06-11T12:10:26.175Z,41.10
2018-06-11T12:12:54.275Z,39.10
2018-06-11T12:15:22.377Z,37.40
2018-06-11T12:17:50.463Z,36.10
2018-06-11T12:20:18.585Z,35.40
2018-06-11T12:22:46.676Z,35.00
2018-06-11T12:25:14.837Z,36.30
2018-06-11T12:27:42.932Z,39.40
2018-06-11T12:30:11.071Z,41.30
2018-06-11T12:32:39.162Z,40.90
2018-06-11T12:35:07.336Z,41.70
2018-06-11T12:37:35.445Z,42.10
2018-06-11T12:40:03.556Z,42.20
2018-06-11T12:42:31.660Z,42.10
2018-06-11T12:44:59.777Z,41.80
2018-06-11T12:47:27.891Z,41.20
2018-06-11T12:49:55.960Z,39.30
2018-06-11T12:52:24.039Z,38.00
2018-06-11T12:54:52.144Z,37.20
2018-06-11T12:57:20.249Z,36.70
2018-06-11T12:59:48.341Z,37.00
2018-06-11T13:02:16.431Z,36.70
2018-06-11T13:04:44.525Z,36.20
2018-06-11T13:07:12.625Z,35.20
2018-06-11T13:09:40.730Z,34.70
2018-06-11T13:12:08.815Z,35.60
2018-06-11T13:14:36.928Z,35.80
2018-06-11T13:17:05.076Z,37.40
2018-06-11T13:19:33.178Z,39.60
2018-06-11T13:22:01.277Z,38.70
2018-06-11T13:24:29.367Z,37.00
2018-06-11T13:26:57.516Z,35.60
2018-06-11T13:29:25.608Z,34.50
2018-06-11T13:31:53.709Z,35.90
2018-06-11T13:34:21.836Z,37.90
2018-06-11T13:36:49.920Z,40.00
2018-06-11T13:39:18.059Z,41.10
2018-06-11T13:41:46.171Z,40.90
2018-06-11T13:44:14.272Z,41.70
2018-06-11T13:46:42.380Z,42.70
2018-06-11T13:49:10.467Z,43.50
2018-06-11T13:51:38.584Z,43.40
2018-06-11T13:54:06.731Z,42.50
2018-06-11T13:56:34.823Z,41.40
2018-06-11T13:59:02.924Z,39.90
2018-06-11T14:01:31.032Z,38.70
2018-06-11T14:03:59.127Z,37.80
2018-06-11T14:06:27.228Z,36.80
2018-06-11T14:08:55.332Z,36.20
2018-06-11T14:13:51.339Z,35.30
2018-06-11T14:16:19.435Z,34.90
2018-06-11T14:18:47.523Z,34.40
2018-06-11T14:21:15.740Z,34.00
2018-06-11T14:23:43.848Z,33.70
2018-06-11T14:26:11.965Z,33.40
2018-06-11T14:28:40.052Z,33.40
2018-06-11T14:31:08.151Z,33.10
2018-06-11T14:33:36.264Z,32.90
2018-06-11T14:36:04.376Z,32.80
2018-06-11T14:38:32.504Z,32.60
2018-06-11T14:43:28.520Z,32.10
2018-06-11T14:45:56.619Z,32.10
2018-06-11T14:48:24.735Z,32.10
2018-06-11T14:50:52.853Z,31.90
2018-06-11T14:55:48.823Z,31.80
2018-06-11T14:58:16.965Z,31.60
2018-06-11T15:00:45.069Z,31.50
2018-06-11T15:03:13.168Z,31.40
2018-06-11T15:05:41.260Z,31.20
2018-06-11T15:08:09.356Z,31.10
2018-06-11T15:10:37.451Z,31.00
2018-06-11T15:13:05.712Z,30.90
2018-06-11T15:18:01.745Z,30.70
2018-06-11T15:20:29.842Z,30.60
2018-06-11T15:22:57.940Z,30.60
2018-06-11T15:25:26.043Z,30.40
2018-06-11T15:30:22.043Z,30.10
2018-06-11T15:32:50.138Z,30.10
2018-06-11T15:35:18.232Z,30.00
2018-06-11T15:40:14.239Z,29.80
2018-06-11T15:42:42.355Z,29.80
2018-06-11T15:45:10.444Z,29.70
2018-06-11T15:47:38.548Z,29.70
2018-06-11T15:50:06.673Z,29.60
2018-06-11T15:52:34.764Z,29.50
2018-06-11T15:55:02.856Z,29.60
2018-06-11T15:57:30.962Z,29.50
2018-06-11T15:59:59.040Z,29.40
2018-06-11T16:02:27.180Z,29.40
2018-06-11T16:04:55.272Z,29.30
2018-06-11T16:07:23.384Z,29.20
2018-06-11T16:09:51.491Z,29.20
2018-06-11T16:12:19.600Z,29.10
2018-06-11T16:14:47.731Z,29.00
2018-06-11T16:17:15.838Z,29.00
2018-06-11T16:19:43.925Z,28.90
2018-06-11T16:22:12.053Z,28.90
2018-06-11T16:24:40.238Z,28.90
2018-06-11T16:27:08.348Z,28.80
2018-06-11T16:29:36.435Z,28.90
2018-06-11T16:32:04.591Z,28.80
2018-06-11T16:34:32.674Z,28.70
2018-06-11T16:37:00.841Z,28.60
2018-06-11T16:41:56.781Z,28.50
2018-06-11T16:44:24.890Z,28.50
2018-06-11T16:46:52.989Z,28.40
2018-06-11T16:49:21.092Z,28.30
2018-06-11T16:51:49.218Z,28.30
2018-06-11T16:54:17.311Z,28.30
2018-06-11T16:56:45.514Z,28.30
2018-06-11T16:59:13.620Z,28.10
2018-06-11T17:04:09.632Z,28.10
2018-06-11T17:06:37.724Z,28.00
2018-06-11T17:11:35.244Z,28.10
2018-06-11T17:16:31.238Z,28.10
2018-06-11T17:21:27.224Z,28.10
2018-06-11T17:23:55.342Z,28.10
2018-06-11T17:28:51.395Z,27.90
2018-06-11T17:36:15.260Z,27.70
2018-06-11T17:38:43.376Z,27.70
2018-06-11T17:43:39.356Z,27.60
2018-06-11T17:46:07.466Z,27.50
2018-06-11T17:48:35.573Z,27.50
2018-06-11T17:51:03.661Z,27.60
2018-06-11T17:53:31.803Z,27.50
2018-06-11T17:55:59.860Z,27.50
2018-06-11T17:58:27.995Z,27.40
2018-06-11T18:00:56.075Z,27.30
2018-06-11T18:03:24.193Z,27.30
2018-06-11T18:05:52.358Z,27.20
2018-06-11T18:08:20.530Z,27.20
2018-06-11T18:10:48.593Z,27.30
2018-06-11T18:13:16.720Z,27.30
2018-06-11T18:15:44.834Z,27.30
2018-06-11T18:18:12.954Z,27.30
2018-06-11T18:20:41.075Z,27.30
2018-06-11T18:23:09.147Z,27.20
2018-06-11T18:25:37.246Z,27.20
2018-06-11T18:28:05.366Z,27.20
2018-06-11T18:30:33.479Z,27.20
2018-06-11T18:35:36.185Z,27.30
2018-06-11T18:38:04.224Z,27.30
2018-06-11T18:40:32.317Z,27.30
2018-06-11T18:43:00.415Z,27.40
2018-06-11T18:45:28.515Z,27.40
2018-06-11T18:47:56.624Z,27.40
2018-06-11T18:50:24.719Z,27.40
2018-06-11T18:52:52.851Z,27.40
2018-06-11T18:55:20.944Z,27.40
2018-06-11T18:57:49.056Z,27.30
2018-06-11T19:00:17.171Z,27.30
2018-06-11T19:02:45.263Z,27.30
2018-06-11T19:05:13.360Z,27.40
2018-06-11T19:07:41.604Z,27.30
2018-06-11T19:10:09.683Z,27.30
2018-06-11T19:12:37.771Z,27.30
2018-06-11T19:15:05.896Z,27.20
2018-06-11T19:17:33.987Z,27.20
2018-06-11T19:20:02.093Z,27.10
2018-06-11T19:22:30.218Z,27.20
2018-06-11T19:24:58.323Z,27.10
2018-06-11T19:30:16.928Z,27.10
2018-06-11T19:32:45.089Z,27.10
2018-06-11T19:40:08.939Z,27.00
2018-06-11T19:42:37.007Z,27.00
2018-06-11T19:45:05.076Z,27.00
2018-06-11T19:47:33.216Z,27.00
2018-06-11T19:50:01.310Z,26.90
2018-06-11T19:52:29.396Z,26.90
2018-06-11T19:54:57.491Z,26.90
2018-06-11T19:57:25.575Z,26.90
2018-06-11T19:59:53.664Z,26.90
2018-06-11T20:02:21.815Z,26.80
2018-06-11T20:04:49.881Z,26.80
2018-06-11T20:07:17.940Z,26.70
2018-06-11T20:09:46.011Z,26.70
2018-06-11T20:12:14.133Z,26.60
2018-06-11T20:14:42.184Z,26.60
2018-06-11T20:17:10.271Z,26.60
2018-06-11T20:19:38.383Z,26.60
2018-06-11T20:22:06.477Z,26.60
2018-06-11T20:24:34.571Z,26.50
2018-06-11T20:27:02.655Z,26.40
2018-06-11T20:29:30.739Z,26.50
2018-06-11T20:34:26.696Z,26.30
2018-06-11T20:36:55.673Z,26.30
2018-06-11T20:39:23.886Z,26.30
2018-06-11T20:41:51.999Z,26.30
2018-06-11T20:44:20.079Z,26.20
2018-06-11T20:46:48.183Z,26.30
2018-06-11T20:49:16.276Z,26.30
2018-06-11T20:51:44.347Z,26.20
2018-06-11T20:56:40.349Z,26.20
2018-06-11T20:59:08.439Z,26.20
2018-06-11T21:01:36.527Z,26.20
2018-06-11T21:04:04.756Z,26.10
2018-06-11T21:06:32.867Z,26.10
2018-06-11T21:11:28.884Z,25.90
2018-06-11T21:13:57.048Z,25.80
2018-06-11T21:16:25.155Z,25.80
2018-06-11T21:18:53.227Z,25.80
2018-06-11T21:21:21.371Z,25.80
2018-06-11T21:23:49.487Z,25.80
2018-06-11T21:26:17.578Z,25.80
2018-06-11T21:28:45.667Z,25.80
2018-06-11T21:31:13.764Z,25.80
2018-06-11T21:33:41.987Z,25.70
2018-06-11T21:36:10.101Z,25.70
2018-06-11T21:38:38.174Z,25.80
2018-06-11T21:41:06.280Z,25.80
2018-06-11T21:43:34.424Z,25.70
2018-06-11T21:46:02.544Z,25.70
2018-06-11T21:50:58.525Z,25.60
2018-06-11T21:53:26.625Z,25.70
2018-06-11T21:55:54.708Z,25.70
2018-06-11T21:58:22.889Z,25.60
2018-06-11T22:00:51.079Z,25.60
2018-06-11T22:03:19.256Z,25.60
2018-06-11T22:05:47.426Z,25.60
2018-06-11T22:08:15.574Z,25.60
2018-06-11T22:10:43.664Z,25.60
2018-06-11T22:13:11.752Z,25.60
2018-06-11T22:15:39.852Z,25.60
2018-06-11T22:18:07.944Z,25.60
2018-06-11T22:20:36.094Z,25.60
2018-06-11T22:23:04.358Z,25.50
2018-06-11T22:25:32.545Z,25.50
2018-06-11T22:28:00.744Z,25.50
2018-06-11T22:30:28.934Z,25.60
2018-06-11T22:35:24.877Z,25.60
2018-06-11T22:42:48.714Z,25.50
2018-06-11T22:45:16.797Z,25.50
2018-06-11T22:47:44.875Z,25.30
2018-06-11T22:50:12.980Z,25.40
2018-06-11T22:52:41.071Z,25.30
2018-06-11T22:55:09.155Z,25.30
2018-06-11T22:57:37.264Z,25.40
2018-06-11T23:00:05.406Z,25.40
2018-06-11T23:02:33.539Z,25.40
2018-06-11T23:05:01.651Z,25.30
2018-06-11T23:07:29.719Z,25.40
2018-06-11T23:09:57.844Z,25.40
2018-06-11T23:12:25.920Z,25.30
2018-06-11T23:14:54.016Z,25.30
2018-06-11T23:17:22.121Z,25.30
2018-06-11T23:19:50.200Z,25.20
2018-06-11T23:22:18.280Z,25.20
2018-06-11T23:24:46.395Z,25.20
2018-06-11T23:27:14.468Z,25.10
2018-06-11T23:29:42.551Z,25.10
2018-06-11T23:32:10.640Z,25.10
2018-06-11T23:34:38.718Z,25.10
2018-06-11T23:37:06.811Z,25.20
2018-06-11T23:39:34.903Z,25.20
2018-06-11T23:42:03.015Z,25.10
2018-06-11T23:46:58.960Z,25.10
2018-06-11T23:51:54.904Z,25.10
2018-06-11T23:54:23.008Z,25.00
2018-06-11T23:56:51.106Z,25.00
2018-06-11T23:59:19.198Z,25.00
